createdAt,value
2018-07-05T00:23:45.152Z,24.60
2018-07-05T00:43:04.047Z,24.60
2018-07-05T00:48:04.401Z,24.50
2018-07-05T00:50:37.614Z,24.60
2018-07-05T00:53:10.838Z,24.50
2018-07-05T00:55:44.073Z,24.60
2018-07-05T00:58:17.379Z,24.60
2018-07-05T01:00:50.496Z,24.60
2018-07-05T01:03:23.615Z,24.50
2018-07-05T01:05:56.784Z,24.60
2018-07-05T01:25:10.363Z,24.60
2018-07-05T01:27:43.501Z,24.60
2018-07-05T01:30:17.646Z,24.60
2018-07-05T01:35:18.374Z,24.60
2018-07-05T01:54:34.735Z,24.60
2018-07-05T01:57:07.930Z,24.60
2018-07-05T01:59:41.128Z,24.60
2018-07-05T02:02:14.276Z,24.60
2018-07-05T02:04:47.513Z,24.60
2018-07-05T02:07:20.633Z,24.60
2018-07-05T02:12:20.969Z,24.60
2018-07-05T02:19:48.905Z,24.60
2018-07-05T02:22:22.104Z,24.50
2018-07-05T02:41:34.474Z,24.50
2018-07-05T02:44:07.561Z,24.50
2018-07-05T02:46:40.717Z,24.50
2018-07-05T03:05:57.099Z,24.60
2018-07-05T03:08:30.245Z,24.60
2018-07-05T03:11:03.599Z,24.60
2018-07-05T03:30:19.149Z,24.50
2018-07-05T03:32:52.228Z,24.50
2018-07-05T03:35:25.414Z,24.50
2018-07-05T03:37:58.565Z,24.50
2018-07-05T03:40:31.668Z,24.50
2018-07-05T03:43:04.719Z,24.50
2018-07-05T03:45:37.822Z,24.50
2018-07-05T03:48:10.906Z,24.50
2018-07-05T03:50:44.002Z,24.50
2018-07-05T03:55:44.490Z,24.50
2018-07-05T03:58:17.501Z,24.50
2018-07-05T04:00:50.615Z,24.50
2018-07-05T04:03:23.887Z,24.60
2018-07-05T04:22:43.200Z,24.50
2018-07-05T04:25:16.345Z,24.60
2018-07-05T04:27:49.449Z,24.50
2018-07-05T04:32:50.005Z,24.60
2018-07-05T04:35:23.384Z,24.50
2018-07-05T04:57:09.908Z,24.50
2018-07-05T05:13:14.842Z,24.20
2018-07-05T05:15:47.902Z,24.20
2018-07-05T05:18:21.022Z,24.20
2018-07-05T05:20:54.053Z,24.20
2018-07-05T05:23:27.120Z,24.20
2018-07-05T05:42:39.980Z,24.20
2018-07-05T05:45:13.160Z,24.20
2018-07-05T05:47:46.556Z,24.20
2018-07-05T05:50:19.960Z,24.20
2018-07-05T05:52:53.041Z,24.30
2018-07-05T05:55:26.227Z,24.20
2018-07-05T05:57:59.332Z,24.20
2018-07-05T06:00:32.296Z,24.30
2018-07-05T06:03:05.617Z,24.30
2018-07-05T06:05:38.910Z,24.20
2018-07-05T06:08:12.014Z,24.20
2018-07-05T06:10:45.109Z,24.30
2018-07-05T06:13:18.231Z,24.30
2018-07-05T06:18:18.469Z,24.30
2018-07-05T06:20:51.546Z,24.30
2018-07-05T06:23:24.611Z,24.30
2018-07-05T06:25:57.803Z,24.30
2018-07-05T06:28:30.914Z,24.30
2018-07-05T06:31:03.875Z,24.30
2018-07-05T06:33:37.121Z,24.30
2018-07-05T06:36:10.220Z,24.30
2018-07-05T06:38:43.517Z,24.30
2018-07-05T06:41:16.725Z,24.30
2018-07-05T06:43:50.162Z,24.30
2018-07-05T06:46:23.479Z,24.30
2018-07-05T06:48:56.761Z,24.30
2018-07-05T06:51:29.904Z,24.30
2018-07-05T06:54:02.931Z,24.30
2018-07-05T06:56:36.018Z,24.40
2018-07-05T06:59:09.126Z,24.40
2018-07-05T07:01:42.267Z,24.40
2018-07-05T07:04:15.479Z,24.40
2018-07-05T07:09:16.070Z,24.40
2018-07-05T07:11:49.356Z,24.40
2018-07-05T07:14:22.727Z,24.40
2018-07-05T07:16:55.784Z,24.50
2018-07-05T07:24:23.516Z,24.50
2018-07-05T07:29:23.884Z,24.50
2018-07-05T07:31:56.951Z,24.50
2018-07-05T07:34:29.989Z,24.50
2018-07-05T07:39:30.423Z,24.50
2018-07-05T07:41:57.490Z,24.50
2018-07-05T07:44:24.467Z,24.60
2018-07-05T07:46:51.530Z,24.50
2018-07-05T07:54:13.192Z,24.60
2018-07-05T07:56:40.180Z,24.60
2018-07-05T07:59:07.143Z,24.60
2018-07-05T08:01:34.201Z,24.60
2018-07-05T08:04:01.162Z,24.60
2018-07-05T08:06:28.141Z,24.60
2018-07-05T08:11:22.618Z,24.60
2018-07-05T08:13:49.605Z,24.60
2018-07-05T08:16:16.586Z,24.60
2018-07-05T08:18:43.758Z,24.60
2018-07-05T08:21:10.847Z,24.60
2018-07-05T08:23:37.836Z,24.60
2018-07-05T08:26:04.916Z,24.60
2018-07-05T08:28:31.928Z,24.60
2018-07-05T08:30:59.034Z,24.70
2018-07-05T08:33:26.133Z,24.60
2018-07-05T08:35:53.177Z,24.60
2018-07-05T08:38:20.145Z,24.60
2018-07-05T08:40:47.164Z,24.70
2018-07-05T09:18:54.388Z,24.70
2018-07-05T09:21:21.462Z,24.70
2018-07-05T09:23:48.648Z,24.80
2018-07-05T09:26:15.612Z,24.70
2018-07-05T09:28:42.613Z,24.70
2018-07-05T09:33:37.197Z,24.70
2018-07-05T09:36:04.202Z,24.80
2018-07-05T09:38:31.164Z,24.80
2018-07-05T09:40:58.248Z,24.80
2018-07-05T09:43:25.211Z,24.80
2018-07-05T09:45:52.611Z,24.80
2018-07-05T09:48:19.693Z,24.80
2018-07-05T10:10:04.517Z,24.80
2018-07-05T10:12:31.570Z,24.80
2018-07-05T10:14:58.580Z,24.80
2018-07-05T10:17:25.625Z,24.80
2018-07-05T10:19:52.763Z,24.80
2018-07-05T10:22:19.727Z,24.80
2018-07-05T10:24:46.728Z,24.80
2018-07-05T10:34:35.884Z,24.80
2018-07-05T10:37:02.849Z,24.80
2018-07-05T10:39:29.922Z,24.90
2018-07-05T10:44:30.588Z,24.90
2018-07-05T10:47:03.753Z,24.90
2018-07-05T10:52:04.272Z,24.90
2018-07-05T10:54:37.297Z,24.90
2018-07-05T10:57:10.277Z,24.90
2018-07-05T10:59:43.265Z,24.90
2018-07-05T11:04:43.795Z,24.90
2018-07-05T11:09:44.465Z,24.90
2018-07-05T11:12:17.643Z,24.90
2018-07-05T11:17:18.038Z,24.90
2018-07-05T11:19:51.084Z,24.90
2018-07-05T11:22:23.997Z,24.90
2018-07-05T11:24:57.230Z,24.90
2018-07-05T11:29:57.503Z,24.80
2018-07-05T11:32:30.785Z,24.80
2018-07-05T11:35:03.836Z,24.80
2018-07-05T11:37:37.004Z,24.90
2018-07-05T11:40:10.261Z,24.80
2018-07-05T11:42:43.534Z,24.80
2018-07-05T11:45:16.737Z,24.80
2018-07-05T11:47:50.088Z,24.90
2018-07-05T11:50:23.225Z,24.80
2018-07-05T11:52:56.217Z,24.80
2018-07-05T11:55:29.241Z,24.80
2018-07-05T11:58:02.172Z,24.80
2018-07-05T12:00:35.233Z,24.80
2018-07-05T12:05:35.579Z,24.80
2018-07-05T12:10:36.109Z,24.80
2018-07-05T12:18:04.025Z,24.80
2018-07-05T12:20:37.319Z,24.80
2018-07-05T12:23:10.485Z,24.80
2018-07-05T12:25:43.607Z,24.80
2018-07-05T12:28:16.815Z,24.80
2018-07-05T12:30:49.883Z,24.80
2018-07-05T12:33:23.109Z,24.80
2018-07-05T12:35:56.296Z,24.80
2018-07-05T12:38:29.608Z,24.80
2018-07-05T12:41:02.737Z,24.80
2018-07-05T12:43:35.887Z,24.80
2018-07-05T12:46:08.988Z,24.80
2018-07-05T12:48:42.014Z,24.90
2018-07-05T12:51:14.969Z,24.80
2018-07-05T12:53:48.000Z,24.80
2018-07-05T12:56:21.078Z,24.80
2018-07-05T12:58:54.197Z,24.80
2018-07-05T13:01:27.196Z,24.90
2018-07-05T13:04:00.220Z,24.80
2018-07-05T13:06:33.290Z,24.90
2018-07-05T13:09:08.708Z,24.80
2018-07-05T13:28:21.200Z,24.80
2018-07-05T13:33:21.579Z,24.80
2018-07-05T13:35:54.603Z,24.80
2018-07-05T13:38:27.761Z,24.80
2018-07-05T13:41:00.864Z,24.80
2018-07-05T13:43:33.877Z,24.80
2018-07-05T13:46:06.901Z,24.80
2018-07-05T13:48:39.978Z,24.80
2018-07-05T13:51:13.016Z,24.80
2018-07-05T13:53:45.972Z,24.80
2018-07-05T13:56:18.911Z,24.70
2018-07-05T14:06:14.148Z,24.80
2018-07-05T14:08:47.289Z,24.80
2018-07-05T14:11:20.279Z,24.80
2018-07-05T14:13:53.480Z,24.80
2018-07-05T14:16:26.653Z,24.80
2018-07-05T14:18:59.775Z,24.80
2018-07-05T14:21:32.764Z,24.80
2018-07-05T14:40:40.744Z,24.80
2018-07-05T14:43:13.787Z,24.80
2018-07-05T14:45:46.835Z,24.80
2018-07-05T14:48:19.864Z,24.80
2018-07-05T14:50:52.997Z,24.70
2018-07-05T14:53:26.165Z,24.70
2018-07-05T15:20:48.982Z,24.60
2018-07-05T15:42:41.113Z,24.60
2018-07-05T15:45:14.315Z,24.60
2018-07-05T15:47:47.582Z,24.60
2018-07-05T15:50:20.733Z,24.60
2018-07-05T15:55:21.299Z,24.60
2018-07-05T15:57:54.290Z,24.60
2018-07-05T16:00:27.400Z,24.60
2018-07-05T16:03:00.618Z,24.60
2018-07-05T16:05:33.740Z,24.60
2018-07-05T16:24:43.081Z,24.50
2018-07-05T16:27:16.279Z,24.50
2018-07-05T16:29:49.350Z,24.60
2018-07-05T16:54:27.907Z,24.50
2018-07-05T16:57:00.890Z,24.50
2018-07-05T16:59:34.038Z,24.50
2018-07-05T17:04:34.624Z,24.50
2018-07-05T17:07:07.792Z,24.50
2018-07-05T17:29:02.334Z,24.50
2018-07-05T17:31:35.445Z,24.50
2018-07-05T17:34:08.554Z,24.50
2018-07-05T17:36:41.817Z,24.40
2018-07-05T17:44:09.506Z,24.40
2018-07-05T17:46:42.540Z,24.40
2018-07-05T18:05:54.625Z,24.40
2018-07-05T18:25:08.220Z,24.30
2018-07-05T18:27:41.330Z,24.30
2018-07-05T18:30:14.573Z,24.30
2018-07-05T18:32:47.558Z,24.30
2018-07-05T18:35:20.688Z,24.40
2018-07-05T18:37:53.696Z,24.30
2018-07-05T18:45:58.314Z,24.30
2018-07-05T18:48:31.511Z,24.30
2018-07-05T18:51:04.876Z,24.30
2018-07-05T18:53:38.152Z,24.40
2018-07-05T18:56:11.171Z,24.30
2018-07-05T18:58:44.278Z,24.30
2018-07-05T19:01:17.327Z,24.30
2018-07-05T19:03:50.388Z,24.30
2018-07-05T19:22:58.372Z,24.30
2018-07-05T19:25:31.499Z,24.30
2018-07-05T19:28:04.710Z,24.30
2018-07-05T19:30:37.804Z,24.30
2018-07-05T19:33:11.038Z,24.30
2018-07-05T19:35:44.175Z,24.30
2018-07-05T19:38:17.257Z,24.30
2018-07-05T19:45:45.132Z,24.30
2018-07-05T19:48:18.381Z,24.30
2018-07-05T19:50:51.501Z,24.30
2018-07-05T19:53:24.813Z,24.30
2018-07-05T20:12:35.797Z,24.40
2018-07-05T20:15:08.953Z,24.50
2018-07-05T20:17:41.965Z,24.40
2018-07-05T20:36:49.820Z,24.50
2018-07-05T20:39:22.747Z,24.50
2018-07-05T21:01:02.480Z,24.60
2018-07-05T21:20:13.152Z,24.50
2018-07-05T21:27:40.753Z,24.50
2018-07-05T21:30:13.773Z,24.50
2018-07-05T21:49:20.669Z,24.50
2018-07-05T21:51:53.705Z,24.50
2018-07-05T21:54:26.771Z,24.60
2018-07-05T21:59:27.152Z,24.50
2018-07-05T22:02:00.163Z,24.50
2018-07-05T22:04:33.137Z,24.50
2018-07-05T22:07:06.344Z,24.50
2018-07-05T22:09:39.481Z,24.50
2018-07-05T22:12:12.637Z,24.50
2018-07-05T22:14:45.919Z,24.50
2018-07-05T22:17:24.536Z,24.50
2018-07-05T22:20:03.027Z,24.50
2018-07-05T22:22:41.535Z,24.50
2018-07-05T22:25:20.008Z,24.50
2018-07-05T22:27:58.451Z,24.50
2018-07-05T22:47:05.348Z,24.50
2018-07-05T22:49:38.338Z,24.60
2018-07-05T22:52:11.345Z,24.60
2018-07-05T22:54:44.363Z,24.60
2018-07-05T22:57:17.327Z,24.60
2018-07-05T22:59:50.391Z,24.60
2018-07-05T23:02:23.338Z,24.60
2018-07-05T23:04:56.415Z,24.60
2018-07-05T23:07:29.551Z,24.60
2018-07-05T23:10:02.627Z,24.60
2018-07-05T23:29:12.828Z,24.50
2018-07-05T23:48:26.745Z,24.50
